Skip Navigation Linkwww.weather.gov 
NOAA Logo - Click to go to the NOAA homepage National Weather Service   NWS logo - Click to go to the NWS homepage
Alaska Region Headquarters
Top left navbar Home Site Map National News Organization
  Nav bar end cap
Follow the National Weather Service Alaska Region on Facebook Follow the National Weather Service in Alaska on Twitter
UsaGov
Show Decoded Observations
Central Observations
TESTM CENA2 171147Z AUTO 00000KT 10SM BKN032 BKN095 M14/M15 A2942 RMK A02 SLP905 T11411154
TESTM CENA2 171117Z AUTO 00000KT 10SM FEW035 SCT046 M14/M15 A2941 RMK A02 SLP901 T11371151
TESTM CENA2 171047Z AUTO 00000KT 10SM BKN080 BKN090 M12/M14 A2939 RMK A02 SLP894 T11251137
TESTM CENA2 171017Z AUTO 00000KT 10SM SCT031 BKN085 M12/M13 A2938 RMK A02 SLP890 T11191130
TESTM CENA2 170947Z AUTO 00000KT 10SM BKN034 BKN095 M12/M13 A2937 RMK A02 SLP887 T11221134
TESTM CENA2 170917Z AUTO 00000KT 10SM OVC090 M12/M14 A2935 RMK A02 SLP882 T11231135
TESTM CENA2 170847Z AUTO 00000KT 10SM FEW002 BKN080 M12/M13 A2935 RMK A02 SLP880 T11231134
TESTM CENA2 170817Z AUTO 00000KT 10SM OVC003 M13/M14 A2933 RMK A02 SLP876 T11291141
TESTM CENA2 170747Z AUTO 00000KT 10SM OVC003 M13/M14 A2932 RMK A02 SLP872 T11311143
TESTM CENA2 170717Z AUTO 00000KT 1SM BR OVC002 M14/M15 A2931 RMK A02 SLP869 T11351147
TESTM CENA2 170647Z AUTO 00000KT 1SM BR 003 M14/M15 A2930 RMK A02 SLP865 T11381151
TESTM CENA2 170617Z AUTO 00000KT 10SM OVC003 M14/M16 A2928 RMK A02 SLP861 T11421156
TESTM CENA2 170547Z AUTO 00000KT 10SM OVC003 M14/M16 A2928 RMK A02 SLP859 T11421155
TESTM CENA2 170517Z AUTO 00000KT 10SM OVC004 M15/M16 A2927 RMK A02 SLP858 T11501164
TESTM CENA2 170447Z AUTO 00000KT 10SM OVC005 M15/M16 A2926 RMK A02 SLP855 T11491163
TESTM CENA2 170417Z AUTO 00000KT 10SM OVC005 M15/M16 A2926 RMK A02 SLP853 T11461160
TESTM CENA2 170347Z AUTO 00000KT 10SM OVC006 M15/M16 A2925 RMK A02 SLP852 T11491163
TESTM CENA2 170317Z AUTO 00000KT 10SM OVC007 M15/M17 A2925 RMK A02 SLP849 T11541168
TESTM CENA2 170247Z AUTO 00000KT 10SM BKN006 BKN140 M15/M17 A2924 RMK A02 SLP847 T11531167
TESTM CENA2 170217Z AUTO 00000KT 10SM FEW006 BKN140 M14/M15 A2923 RMK A02 SLP845 T11381152
TESTM CENA2 170147Z AUTO 00000KT 10SM SCT005 BKN100 M13/M14 A2923 RMK A02 SLP844 T11271139
TESTM CENA2 170117Z AUTO 00000KT 10SM SCT005 BKN090 M12/M14 A2922 RMK A02 SLP842 T11251136
TESTM CENA2 170047Z AUTO 00000KT 10SM OVC085 M12/M14 A2922 RMK A02 SLP843 T11241136
TESTM CENA2 170017Z AUTO 00000KT 10SM BKN075 M12/M14 A2922 RMK A02 SLP841 T11231135
TESTM CENA2 162347Z AUTO 00000KT 10SM -PL FEW044 BKN075 M12/M13 A2922 RMK A02 SLP841 T11151126
TESTM CENA2 162317Z AUTO 00000KT 2SM -PL OVC040 M12/M12 A2922 RMK A02 SLP841 T11151125
TESTM CENA2 162247Z AUTO 00000KT 1SM -PL BKN019 OVC032 M11/M13 A2921 RMK A02 SLP839 T11141126
TESTM CENA2 162217Z AUTO 00000KT 2SM -FZRA FEW009 BKN033 M11/M12 A2921 RMK A02 SLP837 T11091119
TESTM CENA2 162147Z AUTO 00000KT 7SM -PL FEW010 BKN046 OVC070 M11/M12 A2920 RMK A02 SLP836 T11141124
TESTM CENA2 162117Z AUTO 00000KT 10SM OVC060 M12/M13 A2920 RMK A02 SLP836 T11221134
TESTM CENA2 162047Z AUTO 00000KT 10SM OVC065 M12/M14 A2920 RMK A02 SLP835 T11251136
TESTM CENA2 162017Z AUTO 00000KT 10SM BKN075 M13/M14 A2919 RMK A02 SLP833 T11321144
TESTM CENA2 161947Z AUTO 00000KT 10SM FEW002 BKN100 M14/M16 A2920 RMK A02 SLP834 T11431156
TESTM CENA2 161917Z AUTO 00000KT 10SM BKN120 M15/M16 A2920 RMK A02 SLP836 T11511165
TESTM CENA2 161847Z AUTO 00000KT 10SM SCT120 M16/M17 A2920 RMK A02 SLP836 T11551170
TESTM CENA2 161817Z AUTO 00000KT 10SM BKN130 M15/M17 A2921 RMK A02 SLP837 T11541169
TESTM CENA2 161747Z AUTO 00000KT 10SM FEW120 M15/M16 A2920 RMK A02 SLP836 T11471161
TESTM CENA2 161717Z AUTO 00000KT 10SM SCT130 M15/M16 A2920 RMK A02 SLP836 T11491163
TESTM CENA2 161647Z AUTO 00000KT 10SM BKN130 M15/M16 A2920 RMK A02 SLP835 T11461159
TESTM CENA2 161617Z AUTO 00000KT 10SM SCT100 BKN140 M15/M16 A2921 RMK A02 SLP837 T11461160
TESTM CENA2 161547Z AUTO 00000KT 10SM BKN100 BKN110 M15/M16 A2921 RMK A02 SLP839 T11481162
TESTM CENA2 161517Z AUTO 00000KT 10SM BKN110 M14/M16 A2922 RMK A02 SLP841 T11441157
TESTM CENA2 161447Z AUTO 00000KT 10SM BKN130 M14/M16 A2923 RMK A02 SLP844 T11441157
TESTM CENA2 161417Z AUTO 00000KT 10SM BKN120 M15/M17 A2924 RMK A02 SLP847 T11531167
TESTM CENA2 161347Z AUTO 00000KT 10SM FEW120 M15/M17 A2925 RMK A02 SLP851 T11541169
TESTM CENA2 161317Z AUTO 00000KT 10SM SKC M15/M16 A2925 RMK A02 SLP852 T11501164
TESTM CENA2 161247Z AUTO 00000KT 10SM SKC M14/M15 A2927 RMK A02 SLP856 T11401154
TESTM CENA2 161217Z AUTO 00000KT 10SM FEW100 M12/M13 A2928 RMK A02 SLP860 T11171130
TESTM CENA2 161147Z AUTO 00000KT 10SM FEW140 M10/M11 A2929 RMK A02 SLP864 T11031109
TESTM CENA2 161117Z AUTO 00000KT 10SM BKN080 M10/M11 A2931 RMK A02 SLP869 T10991110
TESTM CENA2 161047Z AUTO 00000KT 10SM BKN085 M11/M12 A2932 RMK A02 SLP871 T11101120
TESTM CENA2 161017Z AUTO 00000KT 10SM SCT070 BKN085 BKN130 M11/M12 A2933 RMK A02 SLP876 T11091120
TESTM CENA2 160947Z AUTO 00000KT 10SM OVC085 M10/M11 A2934 RMK A02 SLP879 T11031114
TESTM CENA2 160917Z AUTO 00000KT 10SM OVC085 M10/M11 A2936 RMK A02 SLP884 T11021112
TESTM CENA2 160847Z AUTO 00000KT 10SM OVC065 M11/M12 A2936 RMK A02 SLP886 T11061115
TESTM CENA2 160817Z AUTO 00000KT 10SM -FZRA OVC060 M11/M12 A2938 RMK A02 SLP892 T11141124
TESTM CENA2 160747Z AUTO 00000KT 10SM -SHSN OVC050 M12/M13 A2940 RMK A02 SLP896 T11181128
TESTM CENA2 160717Z AUTO 00000KT 10SM OVC065 M13/M14 A2942 RMK A02 SLP902 T11291141
TESTM CENA2 160647Z AUTO 00000KT 10SM FEW009 SCT011 BKN065 M12/M14 A2942 RMK A02 SLP905 T11251137
TESTM CENA2 160617Z AUTO 00000KT 10SM SCT002 BKN120 M14/M15 A2943 RMK A02 SLP907 T11371150
TESTM CENA2 160547Z AUTO 00000KT 10SM FEW002 FEW004 BKN140 M14/M15 A2945 RMK A02 SLP913 T11401153
TESTM CENA2 160517Z AUTO 00000KT 10SM OVC004 M14/M15 A2946 RMK A02 SLP915 T11401153
TESTM CENA2 160447Z AUTO 00000KT 10SM OVC004 M15/M16 A2947 RMK A02 SLP918 T11501163
TESTM CENA2 160417Z AUTO 00000KT 10SM BKN005 M18/M19 A2948 RMK A02 SLP922 T11751191
TESTM CENA2 160347Z AUTO 00000KT 10SM FEW006 M18/M20 A2949 RMK A02 SLP926 T11781195
TESTM CENA2 160317Z AUTO 00000KT 10SM BKN006 M17/M19 A2950 RMK A02 SLP929 T11701186
TESTM CENA2 160247Z AUTO 00000KT 10SM BKN006 M17/M19 A2951 RMK A02 SLP932 T11741191
TESTM CENA2 160217Z AUTO 00000KT 10SM FEW003 BKN006 M18/M19 A2952 RMK A02 SLP936 T11751191
TESTM CENA2 160147Z AUTO 00000KT 10SM 001 M18/M19 A2954 RMK A02 SLP939 T11761192
TESTM CENA2 160117Z AUTO 00000KT 10SM SKC M17/M18 A2955 RMK A02 SLP942 T11681184
TESTM CENA2 160047Z AUTO 00000KT 10SM SCT003 M16/M18 A2956 RMK A02 SLP948 T11631178
TESTM CENA2 160017Z AUTO 00000KT 10SM FEW003 M15/M17 A2957 RMK A02 SLP951 T11531168
TESTM CENA2 152347Z AUTO 00000KT 1SM BR 003 M14/M15 A2959 RMK A02 SLP955 T11401153
TESTM CENA2 152317Z AUTO 00000KT 10SM BKN001 M14/M15 A2959 RMK A02 SLP957 T11361149
TESTM CENA2 152247Z AUTO 00000KT 10SM FEW001 BKN070 M12/M13 A2960 RMK A02 SLP960 T11211133
TESTM CENA2 152217Z AUTO 00000KT 10SM FEW003 BKN070 M13/M14 A2962 RMK A02 SLP964 T11311144
TESTM CENA2 152147Z AUTO 00000KT 10SM BKN004 M12/M13 A2961 RMK A02 SLP963 T11221132
TESTM CENA2 152117Z AUTO 00000KT 10SM SCT006 BKN110 M14/M15 A2963 RMK A02 SLP968 T11371149
TESTM CENA2 152047Z AUTO 00000KT 10SM FEW008 SCT120 M15/M16 A2964 RMK A02 SLP972 T11461159
TESTM CENA2 152017Z AUTO 00000KT 10SM FEW009 BKN120 M15/M16 A2965 RMK A02 SLP973 T11461159
TESTM CENA2 151947Z AUTO 00000KT 10SM BKN130 M15/M16 A2965 RMK A02 SLP975 T11481161
TESTM CENA2 151917Z AUTO 00000KT 10SM SKC M15/M16 A2965 RMK A02 SLP973 T11471161
TESTM CENA2 151847Z AUTO 00000KT 10SM FEW009 FEW095 M15/M16 A2966 RMK A02 SLP976 T11461161
TESTM CENA2 151817Z AUTO 00000KT 10SM SCT090 M13/M15 A2965 RMK A02 SLP975 T11331146
TESTM CENA2 151747Z AUTO 00000KT 10SM BKN090 BKN160 M12/M13 A2965 RMK A02 SLP975 T11201132
TESTM CENA2 151717Z AUTO 00000KT 10SM SCT027 BKN160 M10/M12 A2966 RMK A02 SLP976 T11041115
TESTM CENA2 151647Z AUTO 00000KT 10SM -SHSN SCT027 BKN038 BKN075 M10/M11 A2966 RMK A02 SLP977 T10981107
TESTM CENA2 151617Z AUTO 00000KT 10SM -SHSN SCT028 BKN037 M09/M10 A2966 RMK A02 SLP977 T10941103
TESTM CENA2 151547Z AUTO 00000KT 10SM -FZRA OVC035 M09/M10 A2966 RMK A02 SLP978 T10891096
TESTM CENA2 151517Z AUTO 00000KT 4SM -FZRA BKN034 M09/M10 A2966 RMK A02 SLP977 T10901098
TESTM CENA2 151447Z AUTO 00000KT 3SM -FZRA OVC034 M09/M10 A2966 RMK A02 SLP977 T10891098
TESTM CENA2 151417Z AUTO 00000KT 2SM -FZRA OVC031 M09/M10 A2966 RMK A02 SLP977 T10901098
TESTM CENA2 151347Z AUTO 00000KT 1SM -PL OVC026 M09/M10 A2966 RMK A02 SLP976 T10891097
TESTM CENA2 151317Z AUTO 00000KT 2SM -FZRA OVC021 M09/M10 A2965 RMK A02 SLP975 T10901098
TESTM CENA2 151247Z AUTO 00000KT 5SM -PL OVC022 M09/M10 A2966 RMK A02 SLP976 T10921101
TESTM CENA2 151217Z AUTO 00000KT 1SM -PL OVC022 M09/M10 A2965 RMK A02 SLP974 T10921100
TESTM CENA2 151147Z AUTO 00000KT 2SM -PL OVC022 M09/M10 A2965 RMK A02 SLP974 T10921100
TESTM CENA2 151117Z AUTO 00000KT 7SM -PL OVC024 M09/M10 A2965 RMK A02 SLP973 T10921100

Alaska Region Headquarters
222 West 7th Avenue #23
Anchorage, AK 99513-7575
Voice: 1-907-271-5088
Fax: 1-907-271-3711
Recorded Forecast: 1-800-472-0391
Webmaster Email: ARH Webauthors
Page Modified: 03 Feb 2008 18:00 UTC
About Us
Career Opportunities
Glossary
Credits
Disclaimer
Privacy Policy